Mendham, NJ

12:30 PM EDT on July 23, 2016 (GMT -0400)
| | Change Station

Elev -9999 ft 0.00 °N, 0.00 °E | Updated

Clear
Clear
91 °F
Feels Like 91 °F
N
10
Wind Variable Wind from WNW
Gusts 15 mph

Today
High -- | Low -- °F
--% Chance of Precip.
Yesterday
High -- | Low -- °F
Precip. -- in
Pressure 29.87 in
Visibility 10.0 miles
Clouds Few 15000 ft
Heat Index 91 °F
Dew Point 59 °F
Humidity 34%
Rainfall --
Snow Depth Not available.
5:47 AM 8:22 PM
Waning Gibbous, 84% visible
METAR KMMU 231545Z 29008G13KT 10SM FEW150 32/17 A2987
Pressure 29.87 in
Visibility 10.0 miles
Clouds Few 15000 ft
Heat Index 91 °F
Dew Point 59 °F
Humidity 34%
Rainfall --
Snow Depth Not available.
5:47 AM 8:22 PM
Waning Gibbous, 84% visible
METAR KMMU 231545Z 29008G13KT 10SM FEW150 32/17 A2987

10-Day Weather Forecast

Almanac

Astronomy

Jul. 23, 2016 Rise Set
Actual Time
Civil Twilight
Nautical Twilight
Astronomical Twilight
Moon
Length of Visible Light
Length of Day
Tomorrow will be .
, % of the Moon is Illuminated

Today's Extremes

State Highs State Lows

Community

WunderPhotos

Upload Photos

1,926,858 photos uploaded!

WunderBlog® & News

Nearby

Air Quality

  Air Quality AQ Index Pollutant
Not available.

Snow Depth

Station Depth Elevation

Earthquake Activity

City Distance Mag. Time & Date
Minimum magnitude displayed is 2.5.

Coastal Water Temperatures

Place Temperature

Stations

Nearby Weather Stations

Station Location Temp. Windchill Dew Point Humidity Wind Precip. Elev Updated Type
                   

Watches & Warnings

Excessive Heat Watch
Issued: 3:39 AM EDT Jul. 23, 2016 – National Weather Service

... Excessive heat watch remains in effect from Monday morning
through Monday afternoon...

* temperatures... highs around 95 degrees Monday afternoon.

* Heat index values... potentially as high as 105 degrees Monday
afternoon.

* Impacts... the excessive can create hazardous conditions. The
potential for heat related health issues will be high...
especially for the elderly and for those already in poor
health.

Precautionary/preparedness actions...

An excessive heat watch means that a prolonged period of hot
temperatures and high humidity is possible. This combination can
create a dangerous situation in which heat related illnesses are
possible.




Air Quality Alert
Issued: National Weather Service
early evening hours.

Nnnn


nnnn